createdAt,value
2022-07-27T00:01:06.837Z,16.60
2022-07-27T00:03:36.478Z,17.58
2022-07-27T00:06:03.698Z,18.08
2022-07-27T00:08:35.593Z,18.92
2022-07-27T00:11:03.844Z,18.80
2022-07-27T00:13:31.815Z,19.23
2022-07-27T00:15:59.100Z,18.23
2022-07-27T00:18:26.389Z,20.45
2022-07-27T00:20:56.247Z,20.27
2022-07-27T00:23:25.650Z,21.60
2022-07-27T00:25:53.040Z,19.80
2022-07-27T00:28:20.266Z,21.80
2022-07-27T00:30:47.333Z,21.27
2022-07-27T00:33:16.974Z,20.08
2022-07-27T00:35:44.800Z,19.30
2022-07-27T00:38:12.182Z,19.58
2022-07-27T00:40:39.437Z,19.73
2022-07-27T00:43:08.834Z,19.38
2022-07-27T00:45:35.924Z,19.48
2022-07-27T00:48:05.416Z,20.13
2022-07-27T00:50:32.807Z,18.40
2022-07-27T00:52:59.780Z,16.33
2022-07-27T00:55:27.721Z,17.83
2022-07-27T00:57:59.429Z,16.63
2022-07-27T01:00:29.979Z,15.98
2022-07-27T01:02:59.626Z,15.25
2022-07-27T01:05:36.717Z,15.85
2022-07-27T01:08:06.832Z,17.92
2022-07-27T01:10:34.376Z,18.80
2022-07-27T01:13:02.334Z,18.88
2022-07-27T01:15:35.305Z,19.10
2022-07-27T01:18:07.155Z,16.48
2022-07-27T01:20:34.824Z,17.55
2022-07-27T01:23:06.378Z,15.48
2022-07-27T01:25:33.836Z,16.67
2022-07-27T01:28:03.470Z,15.60
2022-07-27T01:30:30.821Z,15.75
2022-07-27T01:33:06.093Z,15.25
2022-07-27T01:38:03.917Z,14.63
2022-07-27T01:40:34.172Z,13.45
2022-07-27T01:43:01.551Z,15.55
2022-07-27T01:45:28.717Z,15.40
2022-07-27T01:47:55.669Z,15.45
2022-07-27T01:50:27.858Z,16.58
2022-07-27T01:52:54.819Z,16.55
2022-07-27T01:55:21.932Z,16.25
2022-07-27T01:57:51.702Z,17.50
2022-07-27T02:00:18.820Z,18.38
2022-07-27T02:02:45.914Z,20.73
2022-07-27T02:05:13.250Z,22.00
2022-07-27T02:07:41.032Z,21.50
2022-07-27T02:10:12.002Z,21.75
2022-07-27T02:12:41.560Z,21.13
2022-07-27T02:15:14.932Z,21.00
2022-07-27T02:17:44.873Z,20.77
2022-07-27T02:20:22.367Z,21.25
2022-07-27T02:22:50.978Z,20.95
2022-07-27T02:25:19.772Z,21.48
2022-07-27T02:27:48.018Z,19.92
2022-07-27T02:30:17.813Z,20.95
2022-07-27T02:32:45.171Z,21.30
2022-07-27T02:35:19.550Z,20.35
2022-07-27T02:37:48.990Z,22.15
2022-07-27T02:40:17.581Z,20.90
2022-07-27T02:42:46.220Z,21.50
2022-07-27T02:45:15.563Z,21.40
2022-07-27T02:47:43.589Z,22.77
2022-07-27T02:50:13.515Z,20.52
2022-07-27T02:52:43.333Z,22.48
2022-07-27T02:55:10.897Z,22.33
2022-07-27T02:57:41.158Z,22.23
2022-07-27T03:00:12.642Z,22.40
2022-07-27T03:02:42.501Z,22.75
2022-07-27T03:05:11.617Z,20.02
2022-07-27T03:07:41.017Z,23.27
2022-07-27T03:10:15.348Z,22.67
2022-07-27T03:12:45.796Z,21.40
2022-07-27T03:15:15.276Z,20.88
2022-07-27T03:17:42.735Z,20.40
2022-07-27T03:20:14.415Z,19.80
2022-07-27T03:22:42.131Z,18.02
2022-07-27T03:25:11.777Z,20.23
2022-07-27T03:27:39.033Z,17.15
2022-07-27T03:30:07.119Z,18.67
2022-07-27T03:32:34.136Z,18.45
2022-07-27T03:35:01.287Z,18.88
2022-07-27T03:37:28.231Z,18.92
2022-07-27T03:39:56.199Z,17.92
2022-07-27T03:42:23.390Z,18.15
2022-07-27T03:44:52.089Z,16.50
2022-07-27T03:47:19.078Z,17.02
2022-07-27T03:49:46.398Z,16.90
2022-07-27T03:52:17.673Z,17.30
2022-07-27T03:54:46.646Z,17.58
2022-07-27T03:57:15.009Z,18.58
2022-07-27T03:59:42.061Z,18.35
2022-07-27T04:02:09.393Z,16.17
2022-07-27T04:04:36.580Z,17.50
2022-07-27T04:07:03.625Z,17.50
2022-07-27T04:09:30.598Z,17.27
2022-07-27T04:12:02.083Z,16.13
2022-07-27T04:14:30.455Z,13.70
2022-07-27T04:16:57.725Z,13.15
2022-07-27T04:19:27.278Z,10.48
2022-07-27T04:21:54.238Z,9.43
2022-07-27T04:24:21.470Z,7.82
2022-07-27T04:26:48.729Z,10.27
2022-07-27T04:29:20.809Z,9.02
2022-07-27T04:31:48.798Z,9.90
2022-07-27T04:34:16.049Z,11.38
2022-07-27T04:36:43.044Z,13.48
2022-07-27T04:39:10.628Z,14.07
2022-07-27T04:41:38.065Z,12.50
2022-07-27T04:44:05.422Z,12.13
2022-07-27T04:46:37.568Z,11.38
2022-07-27T04:49:04.886Z,11.63
2022-07-27T04:51:35.485Z,11.85
2022-07-27T04:54:03.438Z,12.23
2022-07-27T04:56:30.638Z,12.10
2022-07-27T04:58:59.989Z,14.60
2022-07-27T05:01:31.679Z,15.48
2022-07-27T05:04:04.193Z,14.73
2022-07-27T05:06:33.046Z,14.35
2022-07-27T05:09:04.785Z,14.00
2022-07-27T05:11:32.000Z,13.25
2022-07-27T05:13:59.165Z,12.57
2022-07-27T05:16:29.205Z,10.82
2022-07-27T05:18:57.483Z,10.88
2022-07-27T05:21:25.614Z,10.00
2022-07-27T05:23:52.673Z,10.15
2022-07-27T05:26:20.036Z,8.38
2022-07-27T05:28:47.201Z,6.00
2022-07-27T05:31:17.037Z,4.78
2022-07-27T05:33:49.838Z,4.25
2022-07-27T05:36:17.894Z,3.85
2022-07-27T05:38:50.367Z,3.35
2022-07-27T05:41:23.953Z,3.63
2022-07-27T05:43:55.470Z,3.10
2022-07-27T05:46:32.449Z,3.10
2022-07-27T05:51:27.463Z,2.90
2022-07-27T05:53:57.813Z,2.67
2022-07-27T05:56:25.329Z,3.13
2022-07-27T05:58:52.977Z,3.03
2022-07-27T06:01:20.809Z,3.05
2022-07-27T06:03:50.654Z,3.53
2022-07-27T06:06:56.197Z,3.05
2022-07-27T06:09:23.879Z,3.20
2022-07-27T06:11:51.092Z,3.42
2022-07-27T06:14:20.593Z,4.22
2022-07-27T06:16:50.584Z,4.50
2022-07-27T06:19:17.719Z,5.00
2022-07-27T06:21:53.133Z,4.70
2022-07-27T06:24:21.128Z,4.35
2022-07-27T06:26:48.082Z,5.07
2022-07-27T06:29:15.397Z,4.28
2022-07-27T06:31:44.136Z,4.00
2022-07-27T06:34:14.853Z,4.68
2022-07-27T06:36:43.711Z,4.75
2022-07-27T06:39:12.377Z,4.85
2022-07-27T06:41:39.752Z,4.95
2022-07-27T06:44:12.443Z,4.80
2022-07-27T06:46:42.006Z,5.22
2022-07-27T06:49:11.715Z,4.60
2022-07-27T06:51:39.236Z,4.82
2022-07-27T06:54:09.110Z,4.90
2022-07-27T06:56:37.554Z,5.03
2022-07-27T06:59:04.757Z,4.60
2022-07-27T07:01:32.047Z,4.70
2022-07-27T07:04:01.611Z,4.70
2022-07-27T07:06:28.719Z,4.00
2022-07-27T07:08:56.019Z,4.22
2022-07-27T07:11:23.051Z,3.80
2022-07-27T07:13:52.641Z,4.57
2022-07-27T07:16:24.776Z,4.68
2022-07-27T07:18:54.222Z,4.55
2022-07-27T07:21:23.506Z,4.10
2022-07-27T07:23:53.341Z,4.28
2022-07-27T07:26:20.437Z,4.20
2022-07-27T07:28:49.800Z,3.95
2022-07-27T07:31:19.990Z,4.00
2022-07-27T07:33:47.753Z,4.10
2022-07-27T07:36:17.605Z,4.20
2022-07-27T07:38:44.978Z,4.90
2022-07-27T07:41:12.884Z,4.70
2022-07-27T07:43:42.428Z,3.90
2022-07-27T07:46:09.796Z,4.13
2022-07-27T07:48:39.162Z,4.00
2022-07-27T07:51:06.220Z,4.15
2022-07-27T07:53:35.547Z,4.20
2022-07-27T07:56:06.481Z,3.70
2022-07-27T07:58:33.727Z,4.40
2022-07-27T08:01:01.558Z,4.40
2022-07-27T08:03:31.194Z,3.70
2022-07-27T08:05:58.447Z,4.78
2022-07-27T08:08:27.527Z,3.67
2022-07-27T08:10:54.584Z,4.50
2022-07-27T08:13:24.250Z,4.10
2022-07-27T08:15:53.028Z,4.10
2022-07-27T08:18:20.288Z,4.20
2022-07-27T08:20:49.958Z,4.10
2022-07-27T08:23:17.294Z,4.22
2022-07-27T08:25:44.620Z,4.40
2022-07-27T08:28:11.781Z,4.30
2022-07-27T08:30:39.775Z,4.30
2022-07-27T08:33:07.179Z,4.20
2022-07-27T08:35:35.058Z,4.40
2022-07-27T08:38:05.161Z,4.10
2022-07-27T08:40:40.169Z,3.90
2022-07-27T08:43:12.964Z,4.35
2022-07-27T08:45:45.708Z,3.60
2022-07-27T08:48:14.017Z,5.80
2022-07-27T08:50:42.803Z,4.68
2022-07-27T08:53:12.564Z,4.55
2022-07-27T08:55:43.456Z,4.97
2022-07-27T08:58:12.390Z,4.35
2022-07-27T09:00:44.840Z,4.57
2022-07-27T09:03:19.167Z,4.38
2022-07-27T09:05:57.952Z,4.68
2022-07-27T09:08:30.909Z,5.10
2022-07-27T09:10:59.807Z,5.32
2022-07-27T09:13:33.443Z,5.05
2022-07-27T09:16:21.451Z,5.47
2022-07-27T09:18:59.287Z,5.88
2022-07-27T09:21:29.294Z,6.03
2022-07-27T09:23:59.524Z,5.32
2022-07-27T09:26:32.383Z,5.60
2022-07-27T09:29:12.394Z,5.63
2022-07-27T09:31:48.766Z,6.10
2022-07-27T09:34:36.706Z,5.45
2022-07-27T09:37:06.538Z,5.75
2022-07-27T09:39:33.939Z,6.28
2022-07-27T09:42:03.913Z,5.75
2022-07-27T09:44:43.266Z,5.32
2022-07-27T09:47:29.534Z,4.95
2022-07-27T09:49:59.094Z,6.07
2022-07-27T09:52:29.687Z,6.07
2022-07-27T09:55:05.531Z,5.72
2022-07-27T09:57:56.030Z,6.40
2022-07-27T10:00:24.246Z,5.90
2022-07-27T10:02:52.583Z,6.55
2022-07-27T10:05:22.928Z,6.30
2022-07-27T10:07:53.476Z,6.88
2022-07-27T10:10:23.942Z,6.50
2022-07-27T10:12:54.922Z,5.82
2022-07-27T10:15:24.995Z,6.13
2022-07-27T10:18:14.047Z,6.28
2022-07-27T10:20:47.814Z,7.00
2022-07-27T10:23:34.960Z,6.70
2022-07-27T10:26:21.861Z,6.45
2022-07-27T10:28:52.090Z,6.47
2022-07-27T10:31:36.037Z,6.90
2022-07-27T10:34:05.852Z,5.85
2022-07-27T10:36:32.960Z,7.00
2022-07-27T10:39:06.478Z,6.50
2022-07-27T10:41:41.849Z,6.30
2022-07-27T10:44:15.267Z,6.72
2022-07-27T10:46:50.913Z,6.88
2022-07-27T10:49:19.822Z,7.00
2022-07-27T10:51:48.017Z,7.95
2022-07-27T10:54:38.154Z,7.95
2022-07-27T10:57:09.208Z,7.60
2022-07-27T11:00:06.754Z,8.05
2022-07-27T11:02:41.253Z,8.68
2022-07-27T11:05:42.671Z,8.45
2022-07-27T11:08:47.545Z,9.23
2022-07-27T11:10:48.343Z,8.77
2022-07-27T11:13:20.936Z,9.45
2022-07-27T11:16:23.411Z,11.07
2022-07-27T11:19:01.733Z,11.15
2022-07-27T11:21:34.878Z,10.50
2022-07-27T11:24:16.529Z,10.50
2022-07-27T11:26:47.146Z,10.38
2022-07-27T11:29:16.564Z,10.70
2022-07-27T11:31:55.510Z,11.40
2022-07-27T11:34:38.263Z,12.20
2022-07-27T11:37:19.874Z,13.15
2022-07-27T11:40:32.319Z,12.38
2022-07-27T11:42:40.443Z,12.40
2022-07-27T11:45:10.541Z,12.93
2022-07-27T11:47:37.589Z,11.80
2022-07-27T11:50:07.425Z,13.52
2022-07-27T11:52:34.799Z,13.10
2022-07-27T11:55:02.017Z,13.02
2022-07-27T11:57:36.153Z,12.80
2022-07-27T12:00:05.306Z,12.35
2022-07-27T12:02:51.054Z,13.45
2022-07-27T12:05:18.835Z,14.10
2022-07-27T12:07:46.063Z,15.32
2022-07-27T12:10:13.581Z,5.90
2022-07-27T12:12:40.888Z,3.20
2022-07-27T12:15:44.704Z,2.80
2022-07-27T12:18:06.670Z,2.45
2022-07-27T12:20:36.717Z,2.25
2022-07-27T12:23:09.845Z,2.20
2022-07-27T12:25:39.094Z,2.47
2022-07-27T12:28:12.741Z,2.30
2022-07-27T12:30:40.684Z,2.30
2022-07-27T12:33:28.248Z,2.33
2022-07-27T12:35:56.333Z,2.47
2022-07-27T12:38:38.835Z,2.47
2022-07-27T12:41:06.132Z,2.10
2022-07-27T12:43:35.655Z,2.03
2022-07-27T12:46:13.925Z,2.40
2022-07-27T12:48:43.295Z,2.13
2022-07-27T12:51:11.315Z,2.40
2022-07-27T12:53:39.428Z,2.20
2022-07-27T12:56:12.005Z,2.13
2022-07-27T12:58:40.115Z,2.33
2022-07-27T13:01:09.609Z,2.47
2022-07-27T13:03:37.228Z,2.08
2022-07-27T13:06:08.053Z,2.15
2022-07-27T13:08:40.887Z,2.75
2022-07-27T13:11:07.972Z,2.10
2022-07-27T13:13:37.552Z,2.65
2022-07-27T13:16:05.305Z,2.10
2022-07-27T13:18:32.409Z,2.58
2022-07-27T13:21:03.974Z,2.17
2022-07-27T13:23:33.608Z,2.10
2022-07-27T13:26:03.885Z,2.78
2022-07-27T13:28:30.911Z,1.92
2022-07-27T13:31:00.569Z,2.00
2022-07-27T13:33:27.652Z,1.90
2022-07-27T13:36:00.554Z,2.20
2022-07-27T13:38:30.937Z,2.03
2022-07-27T13:41:00.825Z,2.15
2022-07-27T13:43:27.980Z,1.98
2022-07-27T13:45:55.300Z,2.33
2022-07-27T13:48:22.515Z,2.15
2022-07-27T13:50:49.582Z,2.20
2022-07-27T13:53:24.303Z,2.05
2022-07-27T13:55:51.459Z,2.42
2022-07-27T13:58:18.810Z,2.30
2022-07-27T14:00:49.727Z,2.22
2022-07-27T14:03:19.495Z,1.92
2022-07-27T14:05:48.933Z,2.33
2022-07-27T14:08:19.066Z,2.50
2022-07-27T14:10:46.138Z,2.08
2022-07-27T14:13:17.733Z,2.60
2022-07-27T14:15:54.297Z,2.30
2022-07-27T14:18:25.596Z,2.25
2022-07-27T14:20:53.694Z,2.17
2022-07-27T14:23:25.155Z,2.35
2022-07-27T14:25:53.351Z,2.60
2022-07-27T14:28:20.474Z,2.30
2022-07-27T14:30:50.115Z,2.38
2022-07-27T14:33:17.880Z,3.10
2022-07-27T14:35:48.107Z,2.30
2022-07-27T14:38:24.886Z,2.80
2022-07-27T14:40:58.428Z,2.80
2022-07-27T14:43:25.578Z,3.58
2022-07-27T14:45:52.694Z,3.58
2022-07-27T14:48:32.436Z,4.15
2022-07-27T14:51:09.557Z,4.65
2022-07-27T14:53:39.054Z,4.97
2022-07-27T14:56:06.086Z,4.60
2022-07-27T14:58:33.185Z,5.28
2022-07-27T15:01:02.107Z,4.50
2022-07-27T15:03:29.288Z,2.97
2022-07-27T15:05:56.275Z,3.15
2022-07-27T15:08:26.740Z,2.65
2022-07-27T15:10:54.059Z,2.60
2022-07-27T15:16:03.882Z,2.90
2022-07-27T15:18:36.500Z,3.13
2022-07-27T15:21:12.722Z,2.88
2022-07-27T15:23:43.885Z,2.63
2022-07-27T15:26:12.607Z,2.78
2022-07-27T15:28:40.855Z,2.92
2022-07-27T15:31:08.182Z,2.20
2022-07-27T15:33:37.823Z,3.00
2022-07-27T15:36:05.196Z,2.90
2022-07-27T15:38:32.733Z,2.80
2022-07-27T15:40:59.678Z,2.63
2022-07-27T15:43:26.795Z,2.88
2022-07-27T15:45:53.987Z,2.83
2022-07-27T15:48:22.098Z,3.00
2022-07-27T15:50:51.948Z,2.60
2022-07-27T15:53:23.143Z,3.08
2022-07-27T15:55:52.574Z,2.42
2022-07-27T15:58:20.922Z,2.78
2022-07-27T16:00:56.070Z,2.67
2022-07-27T16:03:25.609Z,2.40
2022-07-27T16:05:54.797Z,2.30
2022-07-27T16:08:22.272Z,2.30
2022-07-27T16:10:51.475Z,2.58
2022-07-27T16:13:18.928Z,2.42
2022-07-27T16:16:04.887Z,2.50
2022-07-27T16:18:36.800Z,2.30
2022-07-27T16:21:06.219Z,2.63
2022-07-27T16:23:34.080Z,2.03
2022-07-27T16:26:04.413Z,2.20
2022-07-27T16:28:34.126Z,2.20
2022-07-27T16:31:01.809Z,2.53
2022-07-27T16:33:31.655Z,2.30
2022-07-27T16:35:58.938Z,2.10
2022-07-27T16:38:26.108Z,2.47
2022-07-27T16:40:53.605Z,2.13
2022-07-27T16:43:20.660Z,2.38
2022-07-27T16:45:50.232Z,2.28
2022-07-27T16:48:19.779Z,2.50
2022-07-27T16:50:47.174Z,2.10
2022-07-27T16:53:17.297Z,2.00
2022-07-27T16:55:44.292Z,2.15
2022-07-27T16:58:14.030Z,2.40
2022-07-27T17:00:41.495Z,1.92
2022-07-27T17:03:08.611Z,1.90
2022-07-27T17:05:35.808Z,1.90
2022-07-27T17:08:04.078Z,2.22
2022-07-27T17:10:31.548Z,2.22
2022-07-27T17:12:58.808Z,2.25
2022-07-27T17:15:26.420Z,2.25
2022-07-27T17:17:53.373Z,1.90
2022-07-27T17:20:32.953Z,1.88
2022-07-27T17:23:04.490Z,2.22
2022-07-27T17:25:31.578Z,2.15
2022-07-27T17:27:58.606Z,1.92
2022-07-27T17:30:25.946Z,2.20
2022-07-27T17:32:54.171Z,2.08
2022-07-27T17:35:21.298Z,2.60
2022-07-27T17:38:05.688Z,2.00
2022-07-27T17:40:35.661Z,2.00
2022-07-27T17:43:05.488Z,2.20
2022-07-27T17:45:32.758Z,2.38
2022-07-27T17:48:00.195Z,2.15
2022-07-27T17:50:27.460Z,2.15
2022-07-27T17:52:57.881Z,2.40
2022-07-27T17:55:25.568Z,1.85
2022-07-27T17:57:53.246Z,2.10
2022-07-27T18:00:20.866Z,2.13
2022-07-27T18:02:47.879Z,2.25
2022-07-27T18:05:15.213Z,2.30
2022-07-27T18:07:42.168Z,2.50
2022-07-27T18:10:09.508Z,2.80
2022-07-27T18:12:36.895Z,2.97
2022-07-27T18:15:23.509Z,2.45
2022-07-27T18:17:50.922Z,2.63
2022-07-27T18:20:21.136Z,2.78
2022-07-27T18:22:54.180Z,2.40
2022-07-27T18:25:37.147Z,2.45
2022-07-27T18:28:10.503Z,2.60
2022-07-27T18:30:42.267Z,2.63
2022-07-27T18:33:20.407Z,2.45
2022-07-27T18:35:48.209Z,2.95
2022-07-27T18:38:22.141Z,3.45
2022-07-27T18:40:53.565Z,3.92
2022-07-27T18:43:27.160Z,4.05
2022-07-27T18:45:56.238Z,4.60
2022-07-27T18:48:23.861Z,4.68
2022-07-27T18:50:54.170Z,4.95
2022-07-27T18:53:24.790Z,4.72
2022-07-27T18:55:56.606Z,4.97
2022-07-27T18:58:27.119Z,5.40
2022-07-27T19:00:57.012Z,5.20
2022-07-27T19:03:24.683Z,4.82
2022-07-27T19:05:56.973Z,5.20
2022-07-27T19:08:24.163Z,4.80
2022-07-27T19:10:51.450Z,4.68
2022-07-27T19:13:18.808Z,5.10
2022-07-27T19:15:46.077Z,4.43
2022-07-27T19:18:13.250Z,4.45
2022-07-27T19:20:42.853Z,4.68
2022-07-27T19:23:12.481Z,4.45
2022-07-27T19:25:40.365Z,4.93
2022-07-27T19:28:11.097Z,4.40
2022-07-27T19:30:41.115Z,4.32
2022-07-27T19:33:10.225Z,4.40
2022-07-27T19:35:40.032Z,4.75
2022-07-27T19:38:08.592Z,4.32
2022-07-27T19:40:44.585Z,4.55
2022-07-27T19:43:17.572Z,4.30
2022-07-27T19:45:46.098Z,4.07
2022-07-27T19:48:16.288Z,4.78
2022-07-27T19:50:48.059Z,4.00
2022-07-27T19:53:16.194Z,4.10
2022-07-27T19:55:45.033Z,4.32
2022-07-27T19:58:16.972Z,3.30
2022-07-27T20:00:50.489Z,3.40
2022-07-27T20:03:20.072Z,3.13
2022-07-27T20:05:51.654Z,3.72
2022-07-27T20:08:23.283Z,3.42
2022-07-27T20:10:50.793Z,3.30
2022-07-27T20:13:18.613Z,3.53
2022-07-27T20:15:45.910Z,3.95
2022-07-27T20:18:14.267Z,4.03
2022-07-27T20:20:44.385Z,4.05
2022-07-27T20:23:11.537Z,3.90
2022-07-27T20:25:39.205Z,3.92
2022-07-27T20:28:06.565Z,3.60
2022-07-27T20:30:33.890Z,3.85
2022-07-27T20:33:01.096Z,4.18
2022-07-27T20:35:36.613Z,3.97
2022-07-27T20:38:07.190Z,3.97
2022-07-27T20:40:36.776Z,3.90
2022-07-27T20:43:06.293Z,4.13
2022-07-27T20:45:33.402Z,4.18
2022-07-27T20:48:00.687Z,3.80
2022-07-27T20:50:30.403Z,4.50
2022-07-27T20:52:58.324Z,4.70
2022-07-27T20:55:25.571Z,4.15
2022-07-27T20:57:57.516Z,4.40
2022-07-27T21:00:28.926Z,4.53
2022-07-27T21:02:58.983Z,4.57
2022-07-27T21:05:28.531Z,4.82
2022-07-27T21:07:58.857Z,4.32
2022-07-27T21:10:28.746Z,4.55
2022-07-27T21:12:58.601Z,4.47
2022-07-27T21:15:33.638Z,4.45
2022-07-27T21:18:04.274Z,4.20
2022-07-27T21:20:31.619Z,4.30
2022-07-27T21:23:17.410Z,4.60
2022-07-27T21:25:44.857Z,4.40
2022-07-27T21:28:16.852Z,3.88
2022-07-27T21:30:46.436Z,3.67
2022-07-27T21:33:16.268Z,3.72
2022-07-27T21:35:43.408Z,4.03
2022-07-27T21:38:10.798Z,4.05
2022-07-27T21:40:38.037Z,3.55
2022-07-27T21:43:05.106Z,3.50
2022-07-27T21:45:32.418Z,4.13
2022-07-27T21:47:59.871Z,4.13
2022-07-27T21:50:27.267Z,3.72
2022-07-27T21:52:57.150Z,4.22
2022-07-27T21:55:24.412Z,3.75
2022-07-27T21:57:52.299Z,3.90
2022-07-27T22:00:25.416Z,3.67
2022-07-27T22:02:52.751Z,3.90
2022-07-27T22:05:22.751Z,4.25
2022-07-27T22:07:53.100Z,4.05
2022-07-27T22:10:23.006Z,4.68
2022-07-27T22:12:50.052Z,4.20
2022-07-27T22:15:19.381Z,3.97
2022-07-27T22:17:50.130Z,4.63
2022-07-27T22:20:20.060Z,4.75
2022-07-27T22:22:48.434Z,4.43
2022-07-27T22:25:18.859Z,4.78
2022-07-27T22:27:49.096Z,4.05
2022-07-27T22:30:16.855Z,4.28
2022-07-27T22:32:48.950Z,4.72
2022-07-27T22:35:16.482Z,4.43
2022-07-27T22:37:46.019Z,5.05
2022-07-27T22:40:13.360Z,4.75
2022-07-27T22:42:43.979Z,4.47
2022-07-27T22:45:14.128Z,4.97
2022-07-27T22:47:42.570Z,5.30
2022-07-27T22:50:12.328Z,4.82
2022-07-27T22:52:45.576Z,4.47
2022-07-27T22:55:15.031Z,4.70
2022-07-27T22:57:44.631Z,4.78
2022-07-27T23:00:12.222Z,5.10
2022-07-27T23:02:39.355Z,5.20
2022-07-27T23:05:07.047Z,4.75
2022-07-27T23:07:36.432Z,5.22
2022-07-27T23:10:06.207Z,5.05
2022-07-27T23:12:33.300Z,5.07
2022-07-27T23:15:01.160Z,5.25
2022-07-27T23:17:28.187Z,5.13
2022-07-27T23:19:57.801Z,5.53
2022-07-27T23:22:27.440Z,5.40
2022-07-27T23:24:54.465Z,4.93
2022-07-27T23:27:21.562Z,5.57
2022-07-27T23:29:48.768Z,5.70
2022-07-27T23:32:15.882Z,5.15
2022-07-27T23:34:42.909Z,5.53
2022-07-27T23:37:10.035Z,5.88
2022-07-27T23:39:37.057Z,5.50
2022-07-27T23:42:04.185Z,6.00
2022-07-27T23:44:31.716Z,5.90
2022-07-27T23:47:04.930Z,6.07
2022-07-27T23:49:32.208Z,5.78
2022-07-27T23:52:02.598Z,5.82
2022-07-27T23:54:32.440Z,5.53
2022-07-27T23:56:59.667Z,6.07
2022-07-27T23:59:26.754Z,5.25
